createdAt,value
2017-02-04T00:00:23.227Z,4.5
2017-02-04T00:01:23.203Z,4.48
2017-02-04T00:02:23.186Z,4.54
2017-02-04T00:03:23.183Z,4.52
2017-02-04T00:04:23.169Z,4.5
2017-02-04T00:05:23.156Z,4.48
2017-02-04T00:06:23.140Z,4.5
2017-02-04T00:07:23.135Z,4.45
2017-02-04T00:08:23.115Z,4.5
2017-02-04T00:09:23.101Z,4.47
2017-02-04T00:10:23.085Z,4.47
2017-02-04T00:11:23.075Z,4.51
2017-02-04T00:12:23.066Z,4.51
2017-02-04T00:13:23.053Z,4.51
2017-02-04T00:14:23.036Z,4.54
2017-02-04T00:15:23.027Z,4.47
2017-02-04T00:16:23.015Z,4.51
2017-02-04T00:17:23.006Z,4.48
2017-02-04T00:18:22.986Z,4.51
2017-02-04T00:19:22.975Z,4.47
2017-02-04T00:20:22.963Z,4.37
2017-02-04T00:21:22.949Z,4.41
2017-02-04T00:22:22.937Z,4.4
2017-02-04T00:23:22.924Z,4.36
2017-02-04T00:24:22.909Z,4.44
2017-02-04T00:25:22.902Z,4.36
2017-02-04T00:26:22.886Z,4.41
2017-02-04T00:27:22.874Z,4.44
2017-02-04T00:28:22.854Z,4.41
2017-02-04T00:29:22.849Z,4.36
2017-02-04T00:30:22.835Z,4.42
2017-02-04T00:31:22.818Z,4.36
2017-02-04T00:32:22.806Z,4.4
2017-02-04T00:33:22.792Z,4.37
2017-02-04T00:34:22.782Z,4.41
2017-02-04T00:35:22.766Z,4.41
2017-02-04T00:36:22.754Z,4.4
2017-02-04T00:37:22.745Z,4.45
2017-02-04T00:38:22.731Z,4.41
2017-02-04T00:39:22.716Z,4.41
2017-02-04T00:40:22.705Z,4.32
2017-02-04T00:41:22.694Z,4.4
2017-02-04T00:42:22.681Z,4.36
2017-02-04T00:43:22.669Z,4.33
2017-02-04T00:44:22.652Z,4.29
2017-02-04T00:45:22.646Z,4.24
2017-02-04T00:46:22.627Z,4.27
2017-02-04T00:47:22.623Z,4.3
2017-02-04T00:48:22.603Z,4.3
2017-02-04T00:49:22.589Z,4.27
2017-02-04T00:50:22.575Z,4.27
2017-02-04T00:51:22.562Z,4.29
2017-02-04T00:52:22.553Z,4.37
2017-02-04T00:53:22.533Z,4.33
2017-02-04T00:54:22.526Z,4.36
2017-02-04T00:55:22.512Z,4.27
2017-02-04T00:56:22.500Z,4.3
2017-02-04T00:57:22.488Z,4.26
2017-02-04T00:58:22.472Z,4.15
2017-02-04T00:59:22.461Z,4.23
2017-02-04T01:00:22.447Z,4.22
2017-02-04T01:01:22.432Z,4.16
2017-02-04T01:02:22.042Z,4.24
2017-02-04T01:03:22.412Z,4.22
2017-02-04T01:04:22.395Z,4.24
2017-02-04T01:05:22.385Z,4.29
2017-02-04T01:06:22.371Z,4.26
2017-02-04T01:07:22.359Z,4.3
2017-02-04T01:08:22.346Z,4.37
2017-02-04T01:09:22.332Z,4.3
2017-02-04T01:10:21.934Z,4.29
2017-02-04T01:11:22.307Z,4.26
2017-02-04T01:12:22.291Z,4.27
2017-02-04T01:13:22.281Z,4.27
2017-02-04T01:14:22.267Z,4.24
2017-02-04T01:15:22.258Z,4.32
2017-02-04T01:16:22.244Z,4.23
2017-02-04T01:17:22.229Z,4.23
2017-02-04T01:18:22.214Z,4.26
2017-02-04T01:19:22.205Z,4.26
2017-02-04T01:20:21.802Z,4.16
2017-02-04T01:21:22.175Z,4.18
2017-02-04T01:22:22.169Z,4.26
2017-02-04T01:23:22.147Z,4.29
2017-02-04T01:24:22.140Z,4.29
2017-02-04T01:25:22.122Z,4.27
2017-02-04T01:26:22.111Z,4.24
2017-02-04T01:27:22.099Z,4.3
2017-02-04T01:28:22.085Z,4.33
2017-02-04T01:29:22.078Z,4.24
2017-02-04T01:30:22.061Z,4.29
2017-02-04T01:31:22.048Z,4.24
2017-02-04T01:32:22.029Z,4.29
2017-02-04T01:33:22.028Z,4.24
2017-02-04T01:34:22.010Z,4.27
2017-02-04T01:35:21.612Z,4.26
2017-02-04T01:36:21.986Z,4.26
2017-02-04T01:37:21.967Z,4.22
2017-02-04T01:38:22.308Z,4.26
2017-02-04T01:39:21.944Z,4.24
2017-02-04T01:40:21.935Z,4.26
2017-02-04T01:41:21.915Z,4.15
2017-02-04T01:42:21.904Z,4.18
2017-02-04T01:43:21.507Z,4.2
2017-02-04T01:44:21.884Z,4.09
2017-02-04T01:45:21.865Z,4.09
2017-02-04T01:46:21.854Z,4.09
2017-02-04T01:47:21.842Z,4.09
2017-02-04T01:48:21.830Z,4.12
2017-02-04T01:49:21.812Z,4.08
2017-02-04T01:50:21.801Z,4.08
2017-02-04T01:51:21.790Z,4.12
2017-02-04T01:52:21.779Z,4.09
2017-02-04T01:53:21.763Z,4.12
2017-02-04T01:54:21.748Z,4.14
2017-02-04T01:55:21.737Z,4.11
2017-02-04T01:56:21.727Z,4.18
2017-02-04T01:57:21.707Z,4.08
2017-02-04T01:58:21.695Z,4.12
2017-02-04T01:59:21.683Z,4.14
2017-02-04T02:00:21.672Z,4.06
2017-02-04T02:01:21.662Z,4
2017-02-04T02:02:21.650Z,4.06
2017-02-04T02:03:21.632Z,4.05
2017-02-04T02:04:21.618Z,4
2017-02-04T02:05:21.602Z,4.05
2017-02-04T02:06:21.591Z,4.08
2017-02-04T02:07:21.579Z,4.05
2017-02-04T02:08:21.569Z,3.97
2017-02-04T02:09:21.556Z,3.93
2017-02-04T02:10:21.541Z,3.88
2017-02-04T02:11:21.538Z,3.94
2017-02-04T02:12:21.513Z,3.91
2017-02-04T02:13:21.502Z,3.88
2017-02-04T02:14:21.489Z,3.94
2017-02-04T02:15:21.482Z,3.88
2017-02-04T02:16:21.463Z,4
2017-02-04T02:17:21.454Z,3.97
2017-02-04T02:18:21.434Z,3.98
2017-02-04T02:19:21.422Z,3.93
2017-02-04T02:20:21.412Z,3.91
2017-02-04T02:21:21.399Z,3.94
2017-02-04T02:22:21.384Z,3.84
2017-02-04T02:23:21.368Z,3.83
2017-02-04T02:24:21.363Z,3.97
2017-02-04T02:25:21.377Z,3.97
2017-02-04T02:26:21.332Z,3.97
2017-02-04T02:27:21.361Z,3.94
2017-02-04T02:28:21.305Z,3.98
2017-02-04T02:29:21.294Z,3.93
2017-02-04T02:30:21.280Z,3.97
2017-02-04T02:31:21.266Z,3.93
2017-02-04T02:32:21.250Z,3.91
2017-02-04T02:33:21.240Z,3.94
2017-02-04T02:34:21.222Z,4
2017-02-04T02:35:21.211Z,4.02
2017-02-04T02:36:21.197Z,3.98
2017-02-04T02:37:21.185Z,3.94
2017-02-04T02:38:21.175Z,3.94
2017-02-04T02:39:21.163Z,3.88
2017-02-04T02:40:21.154Z,3.93
2017-02-04T02:41:21.133Z,3.91
2017-02-04T02:42:21.124Z,3.87
2017-02-04T02:43:21.107Z,3.87
2017-02-04T02:44:21.096Z,3.9
2017-02-04T02:45:21.079Z,3.79
2017-02-04T02:46:21.070Z,3.87
2017-02-04T02:47:21.054Z,3.87
2017-02-04T02:48:20.652Z,3.72
2017-02-04T02:49:21.029Z,3.75
2017-02-04T02:50:21.016Z,3.73
2017-02-04T02:51:20.999Z,3.69
2017-02-04T02:52:20.984Z,3.7
2017-02-04T02:53:20.973Z,3.75
2017-02-04T02:54:20.962Z,3.7
2017-02-04T02:55:20.980Z,3.75
2017-02-04T02:56:20.932Z,3.68
2017-02-04T02:57:20.928Z,3.65
2017-02-04T02:58:20.908Z,3.68
2017-02-04T02:59:20.895Z,3.72
2017-02-04T03:00:20.879Z,3.76
2017-02-04T03:01:20.869Z,3.76
2017-02-04T03:02:20.854Z,3.76
2017-02-04T03:03:20.841Z,3.7
2017-02-04T03:04:20.833Z,3.72
2017-02-04T03:05:20.816Z,3.72
2017-02-04T03:06:20.798Z,3.7
2017-02-04T03:07:20.793Z,3.69
2017-02-04T03:08:20.772Z,3.7
2017-02-04T03:09:20.768Z,3.61
2017-02-04T03:10:20.745Z,3.62
2017-02-04T03:11:20.749Z,3.69
2017-02-04T03:12:20.727Z,3.73
2017-02-04T03:13:20.706Z,3.62
2017-02-04T03:14:20.693Z,3.68
2017-02-04T03:15:20.679Z,3.66
2017-02-04T03:16:20.667Z,3.65
2017-02-04T03:17:20.660Z,3.65
2017-02-04T03:18:20.637Z,3.68
2017-02-04T03:19:20.629Z,3.58
2017-02-04T03:20:20.652Z,3.66
2017-02-04T03:21:20.604Z,3.69
2017-02-04T03:22:20.587Z,3.68
2017-02-04T03:23:20.573Z,3.66
2017-02-04T03:24:20.559Z,3.68
2017-02-04T03:25:20.546Z,3.7
2017-02-04T03:26:20.579Z,3.7
2017-02-04T03:27:20.523Z,3.75
2017-02-04T03:28:20.501Z,3.76
2017-02-04T03:29:20.491Z,3.73
2017-02-04T03:30:20.481Z,3.72
2017-02-04T03:31:20.466Z,3.73
2017-02-04T03:32:20.452Z,3.73
2017-02-04T03:33:20.434Z,3.78
2017-02-04T03:34:20.424Z,3.78
2017-02-04T03:35:20.022Z,3.72
2017-02-04T03:36:20.393Z,3.75
2017-02-04T03:37:20.385Z,3.83
2017-02-04T03:38:20.371Z,3.76
2017-02-04T03:39:20.358Z,3.73
2017-02-04T03:40:20.341Z,3.7
2017-02-04T03:41:20.335Z,3.69
2017-02-04T03:42:20.319Z,3.66
2017-02-04T03:43:19.920Z,3.7
2017-02-04T03:44:20.291Z,3.66
2017-02-04T03:45:20.316Z,3.7
2017-02-04T03:46:20.265Z,3.62
2017-02-04T03:47:20.250Z,3.7
2017-02-04T03:48:20.240Z,3.73
2017-02-04T03:49:20.229Z,3.72
2017-02-04T03:50:20.212Z,3.78
2017-02-04T03:51:20.198Z,3.75
2017-02-04T03:52:20.189Z,3.76
2017-02-04T03:53:20.174Z,3.73
2017-02-04T03:54:20.197Z,3.76
2017-02-04T03:55:20.150Z,3.75
2017-02-04T03:56:20.136Z,3.83
2017-02-04T03:57:20.156Z,3.78
2017-02-04T03:58:19.718Z,3.79
2017-02-04T03:59:20.130Z,3.84
2017-02-04T04:00:20.084Z,3.88
2017-02-04T04:01:19.678Z,3.88
2017-02-04T04:02:20.057Z,3.86
2017-02-04T04:03:20.038Z,3.87
2017-02-04T04:04:20.026Z,3.91
2017-02-04T04:05:20.010Z,3.93
2017-02-04T04:06:19.613Z,3.97
2017-02-04T04:07:19.630Z,3.98
2017-02-04T04:08:19.970Z,3.96
2017-02-04T04:09:19.959Z,3.98
2017-02-04T04:10:19.947Z,3.94
2017-02-04T04:11:19.939Z,3.9
2017-02-04T04:12:19.921Z,3.84
2017-02-04T04:13:19.905Z,3.84
2017-02-04T04:14:19.892Z,3.83
2017-02-04T04:15:19.882Z,3.79
2017-02-04T04:16:19.899Z,3.8
2017-02-04T04:17:19.858Z,3.83
2017-02-04T04:18:19.843Z,3.72
2017-02-04T04:19:19.443Z,3.84
2017-02-04T04:20:19.811Z,3.73
2017-02-04T04:21:19.800Z,3.86
2017-02-04T04:22:19.789Z,3.87
2017-02-04T04:23:19.776Z,3.87
2017-02-04T04:24:19.757Z,3.84
2017-02-04T04:25:19.748Z,3.87
2017-02-04T04:26:19.733Z,3.86
2017-02-04T04:27:19.719Z,3.91
2017-02-04T04:28:19.707Z,3.9
2017-02-04T04:29:19.693Z,3.87
2017-02-04T04:30:19.681Z,3.88
2017-02-04T04:31:19.666Z,3.86
2017-02-04T04:32:19.653Z,3.75
2017-02-04T04:33:19.663Z,3.76
2017-02-04T04:34:19.633Z,3.75
2017-02-04T04:35:19.611Z,3.79
2017-02-04T04:36:19.599Z,3.72
2017-02-04T04:37:19.586Z,3.79
2017-02-04T04:38:19.576Z,3.84
2017-02-04T04:39:19.560Z,3.83
2017-02-04T04:40:19.549Z,3.76
2017-02-04T04:41:19.528Z,3.78
2017-02-04T04:42:19.520Z,3.78
2017-02-04T04:43:19.504Z,3.72
2017-02-04T04:44:19.108Z,3.76
2017-02-04T04:45:19.483Z,3.83
2017-02-04T04:46:19.467Z,3.88
2017-02-04T04:47:19.453Z,3.9
2017-02-04T04:48:19.443Z,3.75
2017-02-04T04:49:19.424Z,3.84
2017-02-04T04:50:19.412Z,3.91
2017-02-04T04:51:19.398Z,3.9
2017-02-04T04:52:19.386Z,3.93
2017-02-04T04:53:19.370Z,3.91
2017-02-04T04:54:19.358Z,3.86
2017-02-04T04:55:19.347Z,3.87
2017-02-04T04:56:19.338Z,3.83
2017-02-04T04:57:19.319Z,3.73
2017-02-04T04:58:19.308Z,3.84
2017-02-04T04:59:19.295Z,3.84
2017-02-04T05:00:19.280Z,3.79
2017-02-04T05:01:19.268Z,3.72
2017-02-04T05:02:19.253Z,3.8
2017-02-04T05:03:19.242Z,3.78
2017-02-04T05:04:19.231Z,3.78
2017-02-04T05:05:19.216Z,3.75
2017-02-04T05:06:19.203Z,3.72
2017-02-04T05:07:19.189Z,3.76
2017-02-04T05:08:19.173Z,3.76
2017-02-04T05:09:19.196Z,3.76
2017-02-04T05:10:19.148Z,3.8
2017-02-04T05:11:19.134Z,3.73
2017-02-04T05:12:19.119Z,3.8
2017-02-04T05:13:18.730Z,3.78
2017-02-04T05:14:19.094Z,3.68
2017-02-04T05:15:19.080Z,3.72
2017-02-04T05:16:19.068Z,3.66
2017-02-04T05:17:19.098Z,3.66
2017-02-04T05:18:19.044Z,3.72
2017-02-04T05:19:19.030Z,3.61
2017-02-04T05:20:19.020Z,3.6
2017-02-04T05:21:19.005Z,3.62
2017-02-04T05:22:18.987Z,3.6
2017-02-04T05:23:18.974Z,3.6
2017-02-04T05:24:18.575Z,3.66
2017-02-04T05:25:18.959Z,3.61
2017-02-04T05:26:18.938Z,3.65
2017-02-04T05:27:18.926Z,3.62
2017-02-04T05:28:18.907Z,3.66
2017-02-04T05:29:18.897Z,3.69
2017-02-04T05:30:18.883Z,3.69
2017-02-04T05:31:18.871Z,3.61
2017-02-04T05:32:18.852Z,3.61
2017-02-04T05:33:18.848Z,3.62
2017-02-04T05:34:18.830Z,3.57
2017-02-04T05:35:18.813Z,3.6
2017-02-04T05:36:18.799Z,3.61
2017-02-04T05:37:18.791Z,3.51
2017-02-04T05:38:18.778Z,3.52
2017-02-04T05:39:18.371Z,3.5
2017-02-04T05:40:18.752Z,3.58
2017-02-04T05:41:18.348Z,3.62
2017-02-04T05:42:18.720Z,3.57
2017-02-04T05:43:18.711Z,3.57
2017-02-04T05:44:18.693Z,3.57
2017-02-04T05:45:18.681Z,3.62
2017-02-04T05:46:18.665Z,3.65
2017-02-04T05:47:18.266Z,3.66
2017-02-04T05:48:18.641Z,3.68
2017-02-04T05:49:18.630Z,3.6
2017-02-04T05:50:18.229Z,3.68
2017-02-04T05:51:18.219Z,3.62
2017-02-04T05:52:18.588Z,3.75
2017-02-04T05:53:18.569Z,3.69
2017-02-04T05:54:18.564Z,3.62
2017-02-04T05:55:18.552Z,3.69
2017-02-04T05:56:18.532Z,3.72
2017-02-04T05:57:18.520Z,3.66
2017-02-04T05:58:18.508Z,3.65
2017-02-04T05:59:18.499Z,3.68
2017-02-04T06:00:18.479Z,3.65
2017-02-04T06:01:18.468Z,3.73
2017-02-04T06:02:18.453Z,3.76
2017-02-04T06:03:18.441Z,3.78
2017-02-04T06:04:18.436Z,3.72
2017-02-04T06:05:18.413Z,3.78
2017-02-04T06:06:18.021Z,3.75
2017-02-04T06:07:18.387Z,3.84
2017-02-04T06:08:18.371Z,3.78
2017-02-04T06:09:18.414Z,3.83
2017-02-04T06:10:18.344Z,3.76
2017-02-04T06:11:18.331Z,3.8
2017-02-04T06:12:18.321Z,3.83
2017-02-04T06:13:18.306Z,3.73
2017-02-04T06:14:18.296Z,3.69
2017-02-04T06:15:18.282Z,3.73
2017-02-04T06:16:18.270Z,3.79
2017-02-04T06:17:18.253Z,3.75
2017-02-04T06:18:18.241Z,3.7
2017-02-04T06:19:18.227Z,3.72
2017-02-04T06:20:18.214Z,3.79
2017-02-04T06:21:18.195Z,3.76
2017-02-04T06:22:18.184Z,3.83
2017-02-04T06:23:18.172Z,3.7
2017-02-04T06:24:18.160Z,3.75
2017-02-04T06:25:18.151Z,3.78
2017-02-04T06:26:18.130Z,3.75
2017-02-04T06:27:17.733Z,3.69
2017-02-04T06:28:18.104Z,3.84
2017-02-04T06:29:18.089Z,3.69
2017-02-04T06:30:18.082Z,3.73
2017-02-04T06:31:18.071Z,3.73
2017-02-04T06:32:18.055Z,3.75
2017-02-04T06:33:18.049Z,3.75
2017-02-04T06:34:18.028Z,3.8
2017-02-04T06:35:18.015Z,3.83
2017-02-04T06:36:17.998Z,3.78
2017-02-04T06:37:17.985Z,3.75
2017-02-04T06:38:17.980Z,3.78
2017-02-04T06:39:17.960Z,3.72
2017-02-04T06:40:17.945Z,3.73
2017-02-04T06:41:17.939Z,3.8
2017-02-04T06:42:17.919Z,3.7
2017-02-04T06:43:17.904Z,3.8
2017-02-04T06:44:17.891Z,3.76
2017-02-04T06:45:17.879Z,3.72
2017-02-04T06:46:17.481Z,3.72
2017-02-04T06:47:17.855Z,3.78
2017-02-04T06:48:17.837Z,3.7
2017-02-04T06:49:17.822Z,3.72
2017-02-04T06:50:17.810Z,3.73
2017-02-04T06:51:17.802Z,3.78
2017-02-04T06:52:17.786Z,3.76
2017-02-04T06:53:17.773Z,3.83
2017-02-04T06:54:17.762Z,3.72
2017-02-04T06:55:17.746Z,3.75
2017-02-04T06:56:17.732Z,3.76
2017-02-04T06:57:17.752Z,3.72
2017-02-04T06:58:17.706Z,3.78
2017-02-04T06:59:17.695Z,3.75
2017-02-04T07:00:17.677Z,3.8
2017-02-04T07:01:17.667Z,3.78
2017-02-04T07:02:17.651Z,3.79
2017-02-04T07:03:17.640Z,3.78
2017-02-04T07:04:17.237Z,3.88
2017-02-04T07:05:17.611Z,3.84
2017-02-04T07:06:17.213Z,3.88
2017-02-04T07:07:17.588Z,3.86
2017-02-04T07:08:17.575Z,3.88
2017-02-04T07:09:17.563Z,3.9
2017-02-04T07:10:17.541Z,3.87
2017-02-04T07:11:17.533Z,3.91
2017-02-04T07:12:17.130Z,3.91
2017-02-04T07:13:17.500Z,3.98
2017-02-04T07:14:17.492Z,3.86
2017-02-04T07:15:17.476Z,3.96
2017-02-04T07:16:17.466Z,3.93
2017-02-04T07:17:17.448Z,4
2017-02-04T07:18:17.051Z,3.98
2017-02-04T07:19:17.425Z,3.93
2017-02-04T07:20:17.417Z,3.94
2017-02-04T07:21:17.399Z,3.98
2017-02-04T07:22:17.386Z,4.02
2017-02-04T07:23:17.369Z,4.04
2017-02-04T07:24:17.359Z,4.12
2017-02-04T07:25:17.344Z,4.09
2017-02-04T07:26:17.332Z,4.12
2017-02-04T07:27:17.323Z,4.09
2017-02-04T07:28:17.313Z,4.2
2017-02-04T07:29:17.298Z,4.18
2017-02-04T07:30:17.281Z,4.2
2017-02-04T07:31:17.270Z,4.16
2017-02-04T07:32:17.255Z,4.2
2017-02-04T07:33:17.238Z,4.09
2017-02-04T07:34:17.228Z,4.12
2017-02-04T07:35:17.215Z,4.14
2017-02-04T07:36:17.203Z,4.2
2017-02-04T07:37:17.192Z,4.22
2017-02-04T07:38:17.175Z,4.18
2017-02-04T07:39:17.164Z,4.24
2017-02-04T07:40:17.172Z,4.24
2017-02-04T07:41:17.135Z,4.29
2017-02-04T07:42:17.121Z,4.27
2017-02-04T07:43:17.112Z,4.27
2017-02-04T07:44:17.100Z,4.27
2017-02-04T07:45:17.086Z,4.26
2017-02-04T07:46:16.684Z,4.37
2017-02-04T07:47:17.098Z,4.41
2017-02-04T07:48:17.042Z,4.41
2017-02-04T07:49:17.034Z,4.37
2017-02-04T07:50:16.629Z,4.4
2017-02-04T07:51:17.008Z,4.41
2017-02-04T07:52:16.608Z,4.4
2017-02-04T07:53:16.978Z,4.44
2017-02-04T07:54:16.966Z,4.48
2017-02-04T07:55:16.955Z,4.48
2017-02-04T07:56:16.942Z,4.47
2017-02-04T07:57:16.932Z,4.48
2017-02-04T07:58:16.914Z,4.51
2017-02-04T07:59:16.906Z,4.54
2017-02-04T08:00:16.900Z,4.55
2017-02-04T08:01:16.881Z,4.62
2017-02-04T08:02:16.867Z,4.63
2017-02-04T08:03:16.859Z,4.69
2017-02-04T08:04:16.844Z,4.67
2017-02-04T08:05:16.847Z,4.75
2017-02-04T08:06:16.434Z,4.7
2017-02-04T08:07:16.806Z,4.67
2017-02-04T08:08:16.794Z,4.69
2017-02-04T08:09:16.779Z,4.85
2017-02-04T08:10:16.380Z,4.89
2017-02-04T08:11:16.750Z,4.94
2017-02-04T08:12:16.741Z,4.88
2017-02-04T08:13:16.727Z,4.96
2017-02-04T08:14:16.716Z,5.02
2017-02-04T08:15:16.704Z,5.04
2017-02-04T08:16:16.688Z,5.02
2017-02-04T08:17:16.681Z,5.06
2017-02-04T08:18:16.669Z,5.06
2017-02-04T08:19:16.653Z,5.2
2017-02-04T08:20:16.646Z,5.17
2017-02-04T08:21:16.630Z,5.25
2017-02-04T08:22:16.622Z,5.22
2017-02-04T08:23:16.222Z,5.39
2017-02-04T08:24:16.213Z,5.38
2017-02-04T08:25:16.192Z,5.57
2017-02-04T08:26:16.183Z,5.51
2017-02-04T08:27:16.563Z,5.64
2017-02-04T08:28:16.549Z,5.67
2017-02-04T08:29:16.536Z,5.79
2017-02-04T08:30:16.526Z,5.82
2017-02-04T08:31:16.516Z,5.85
2017-02-04T08:32:16.509Z,5.85
2017-02-04T08:33:16.490Z,5.85
2017-02-04T08:34:16.476Z,5.83
2017-02-04T08:35:16.470Z,5.89
2017-02-04T08:36:16.454Z,5.82
2017-02-04T08:37:16.444Z,5.89
2017-02-04T08:38:16.433Z,5.91
2017-02-04T08:39:16.420Z,5.93
2017-02-04T08:40:16.437Z,5.96
2017-02-04T08:41:16.403Z,5.9
2017-02-04T08:42:16.388Z,5.97
2017-02-04T08:43:15.993Z,6.06
2017-02-04T08:44:16.368Z,5.96
2017-02-04T08:45:16.358Z,5.99
2017-02-04T08:46:16.344Z,5.9
2017-02-04T08:47:15.943Z,5.93
2017-02-04T08:48:16.321Z,5.93
2017-02-04T08:49:16.310Z,5.94
2017-02-04T08:50:16.642Z,5.9
2017-02-04T08:51:16.286Z,5.89
2017-02-04T08:52:16.273Z,5.89
2017-02-04T08:53:16.267Z,5.86
2017-02-04T08:54:16.252Z,5.86
2017-02-04T08:55:16.240Z,5.93
2017-02-04T08:56:16.226Z,5.99
2017-02-04T08:57:16.220Z,5.86
2017-02-04T08:58:16.205Z,5.94
2017-02-04T08:59:16.198Z,5.85
2017-02-04T09:00:16.183Z,5.85
2017-02-04T09:01:16.177Z,5.81
2017-02-04T09:02:16.163Z,5.85
2017-02-04T09:03:16.151Z,5.94
2017-02-04T09:04:16.142Z,5.93
2017-02-04T09:05:16.126Z,5.99
2017-02-04T09:06:15.731Z,5.91
2017-02-04T09:07:16.106Z,6.01
2017-02-04T09:08:16.091Z,5.97
2017-02-04T09:09:16.084Z,6.09
2017-02-04T09:10:16.071Z,6.06
2017-02-04T09:11:16.063Z,6.06
2017-02-04T09:12:16.048Z,6.06
2017-02-04T09:13:16.048Z,6.06
2017-02-04T09:14:16.032Z,6.08
2017-02-04T09:15:16.016Z,6.08
2017-02-04T09:16:16.007Z,6.08
2017-02-04T09:17:15.994Z,6.14
2017-02-04T09:18:16.017Z,6.09
2017-02-04T09:19:15.975Z,6.17
2017-02-04T09:20:15.957Z,6.18
2017-02-04T09:21:15.947Z,6.25
2017-02-04T09:22:15.975Z,6.22
2017-02-04T09:23:15.929Z,6.31
2017-02-04T09:24:15.917Z,6.37
2017-02-04T09:25:15.908Z,6.46
2017-02-04T09:26:15.897Z,6.52
2017-02-04T09:27:15.885Z,6.58
2017-02-04T09:28:15.877Z,6.71
2017-02-04T09:29:15.861Z,6.71
2017-02-04T09:30:15.852Z,6.64
2017-02-04T09:31:15.840Z,6.77
2017-02-04T09:32:15.833Z,6.77
2017-02-04T09:33:15.817Z,6.87
2017-02-04T09:34:15.806Z,6.91
2017-02-04T09:35:15.796Z,6.87
2017-02-04T09:36:15.792Z,6.79
2017-02-04T09:37:15.775Z,7.02
2017-02-04T09:38:15.768Z,6.89
2017-02-04T09:39:15.756Z,6.81
2017-02-04T09:40:15.362Z,6.89
2017-02-04T09:41:15.732Z,6.89
2017-02-04T09:42:15.721Z,6.88
2017-02-04T09:43:15.709Z,6.87
2017-02-04T09:44:15.701Z,7.05
2017-02-04T09:45:15.701Z,6.94
2017-02-04T09:46:15.680Z,7.12
2017-02-04T09:47:15.673Z,7.12
2017-02-04T09:48:15.276Z,7.06
2017-02-04T09:49:15.650Z,7.1
2017-02-04T09:50:15.641Z,7.16
2017-02-04T09:51:15.630Z,7.17
2017-02-04T09:52:15.617Z,7.23
2017-02-04T09:53:15.610Z,7.21
2017-02-04T09:54:15.599Z,7.23
2017-02-04T09:55:15.588Z,7.2
2017-02-04T09:56:15.577Z,7.27
2017-02-04T09:57:15.567Z,7.28
2017-02-04T09:58:15.562Z,7.23
2017-02-04T09:59:15.551Z,7.27
2017-02-04T10:00:15.533Z,7.32
2017-02-04T10:01:15.531Z,7.39
2017-02-04T10:02:15.515Z,7.3
2017-02-04T10:03:15.508Z,7.24
2017-02-04T10:04:15.499Z,7.28
2017-02-04T10:05:15.487Z,7.31
2017-02-04T10:06:15.490Z,7.39
2017-02-04T10:07:15.467Z,7.37
2017-02-04T10:08:15.487Z,7.4
2017-02-04T10:09:15.449Z,7.4
2017-02-04T10:10:15.053Z,7.3
2017-02-04T10:11:15.430Z,7.4
2017-02-04T10:12:15.418Z,7.32
2017-02-04T10:13:15.409Z,7.34
2017-02-04T10:14:15.397Z,7.4
2017-02-04T10:15:15.391Z,7.28
2017-02-04T10:16:15.385Z,7.28
2017-02-04T10:17:15.366Z,7.31
2017-02-04T10:18:15.356Z,7.27
2017-02-04T10:19:15.345Z,7.3
2017-02-04T10:20:15.335Z,7.32
2017-02-04T10:21:15.326Z,7.42
2017-02-04T10:22:15.316Z,7.58
2017-02-04T10:23:15.307Z,7.6
2017-02-04T10:24:15.307Z,7.49
2017-02-04T10:25:15.282Z,7.6
2017-02-04T10:26:15.276Z,7.57
2017-02-04T10:27:14.881Z,7.57
2017-02-04T10:28:15.258Z,7.53
2017-02-04T10:29:14.864Z,7.52
2017-02-04T10:30:15.235Z,7.63
2017-02-04T10:31:14.839Z,7.71
2017-02-04T10:32:15.221Z,7.83
2017-02-04T10:33:15.204Z,7.89
2017-02-04T10:34:14.814Z,8.04
2017-02-04T10:35:15.189Z,8.19
2017-02-04T10:36:14.794Z,8.25
2017-02-04T10:37:14.779Z,8.34
2017-02-04T10:38:15.165Z,8.36
2017-02-04T10:39:15.152Z,8.37
2017-02-04T10:40:14.752Z,8.37
2017-02-04T10:41:14.744Z,8.43
2017-02-04T10:42:15.123Z,8.4
2017-02-04T10:43:15.110Z,8.47
2017-02-04T10:44:15.104Z,8.47
2017-02-04T10:45:15.097Z,8.5
2017-02-04T10:46:15.086Z,8.61
2017-02-04T10:47:15.112Z,8.61
2017-02-04T10:48:15.065Z,8.66
2017-02-04T10:49:15.061Z,8.76
2017-02-04T10:50:15.050Z,8.74
2017-02-04T10:51:15.042Z,8.83
2017-02-04T10:52:15.031Z,8.84
2017-02-04T10:53:15.022Z,8.84
2017-02-04T10:54:15.012Z,8.86
2017-02-04T10:55:15.005Z,8.92
2017-02-04T10:56:14.999Z,8.81
2017-02-04T10:57:14.993Z,8.81
2017-02-04T10:58:14.978Z,8.77
2017-02-04T10:59:14.971Z,8.77
2017-02-04T11:00:14.961Z,8.77
2017-02-04T11:01:14.954Z,8.86
2017-02-04T11:02:14.556Z,8.7
2017-02-04T11:03:14.938Z,8.79
2017-02-04T11:04:14.926Z,8.66
2017-02-04T11:05:14.917Z,8.63
2017-02-04T11:06:14.912Z,8.65
2017-02-04T11:07:14.901Z,8.65
2017-02-04T11:08:14.892Z,8.73
2017-02-04T11:09:14.882Z,8.62
2017-02-04T11:10:14.877Z,8.68
2017-02-04T11:11:14.478Z,8.7
2017-02-04T11:12:15.130Z,8.7
2017-02-04T11:13:14.845Z,8.63
2017-02-04T11:14:14.841Z,8.71
2017-02-04T11:15:14.831Z,8.68
2017-02-04T11:16:14.431Z,8.66
2017-02-04T11:17:14.812Z,8.7
2017-02-04T11:18:14.803Z,8.56
2017-02-04T11:19:14.792Z,8.63
2017-02-04T11:20:14.783Z,8.61
2017-02-04T11:21:14.775Z,8.44
2017-02-04T11:22:14.766Z,8.47
2017-02-04T11:23:14.757Z,8.48
2017-02-04T11:24:14.746Z,8.48
2017-02-04T11:25:14.741Z,8.48
2017-02-04T11:26:14.733Z,8.53
2017-02-04T11:27:14.723Z,8.52
2017-02-04T11:28:14.711Z,8.56
2017-02-04T11:29:14.701Z,8.61
2017-02-04T11:30:14.695Z,8.58
2017-02-04T11:31:14.684Z,8.68
2017-02-04T11:32:14.291Z,8.7
2017-02-04T11:33:14.666Z,8.8
2017-02-04T11:34:14.660Z,8.83
2017-02-04T11:35:14.650Z,8.98
2017-02-04T11:36:14.640Z,8.86
2017-02-04T11:37:14.633Z,8.96
2017-02-04T11:38:14.628Z,8.83
2017-02-04T11:39:14.616Z,8.91
2017-02-04T11:40:14.217Z,8.96
2017-02-04T11:41:14.600Z,8.94
2017-02-04T11:42:14.586Z,8.91
2017-02-04T11:43:14.586Z,8.99
2017-02-04T11:44:14.573Z,9.05
2017-02-04T11:45:14.182Z,9.11
2017-02-04T11:46:14.565Z,9.11
2017-02-04T11:47:14.546Z,9.14
2017-02-04T11:48:14.544Z,9.14
2017-02-04T11:49:14.529Z,9.05
2017-02-04T11:50:14.524Z,9.01
2017-02-04T11:51:14.519Z,8.94
2017-02-04T11:52:14.511Z,8.92
2017-02-04T11:53:14.530Z,8.94
2017-02-04T11:54:14.488Z,8.84
2017-02-04T11:55:14.484Z,8.99
2017-02-04T11:56:14.475Z,9.01
2017-02-04T11:57:14.501Z,9.05
2017-02-04T11:58:14.072Z,9.17
2017-02-04T11:59:14.447Z,9.11
2017-02-04T12:00:14.445Z,9.29
2017-02-04T12:01:14.426Z,9.39
2017-02-04T12:02:14.426Z,9.35
2017-02-04T12:03:14.414Z,9.36
2017-02-04T12:04:14.406Z,9.35
2017-02-04T12:05:14.402Z,9.35
2017-02-04T12:06:14.393Z,9.32
2017-02-04T12:07:14.383Z,9.23
2017-02-04T12:08:14.372Z,9.21
2017-02-04T12:09:14.368Z,9.23
2017-02-04T12:10:14.358Z,9.24
2017-02-04T12:11:14.351Z,9.15
2017-02-04T12:12:14.337Z,9.28
2017-02-04T12:13:14.329Z,9.11
2017-02-04T12:14:14.323Z,9.21
2017-02-04T12:15:14.313Z,9.13
2017-02-04T12:16:14.307Z,9.1
2017-02-04T12:17:14.294Z,9.1
2017-02-04T12:18:14.290Z,9.08
2017-02-04T12:19:14.282Z,8.94
2017-02-04T12:20:14.276Z,8.94
2017-02-04T12:21:14.264Z,8.76
2017-02-04T12:22:14.261Z,8.77
2017-02-04T12:23:14.246Z,8.79
2017-02-04T12:24:14.239Z,8.77
2017-02-04T12:25:14.236Z,8.81
2017-02-04T12:26:14.222Z,8.8
2017-02-04T12:27:14.211Z,8.77
2017-02-04T12:28:14.208Z,8.77
2017-02-04T12:29:14.196Z,8.86
2017-02-04T12:30:14.186Z,8.76
2017-02-04T12:31:14.179Z,8.84
2017-02-04T12:32:14.164Z,8.77
2017-02-04T12:33:14.162Z,8.74
2017-02-04T12:34:13.764Z,8.68
2017-02-04T12:35:14.136Z,8.62
2017-02-04T12:36:14.137Z,8.61
2017-02-04T12:37:14.126Z,8.68
2017-02-04T12:38:14.118Z,8.63
2017-02-04T12:39:14.105Z,8.52
2017-02-04T12:40:14.099Z,8.47
2017-02-04T12:41:14.117Z,8.37
2017-02-04T12:42:14.083Z,8.47
2017-02-04T12:43:14.074Z,8.44
2017-02-04T12:44:14.067Z,8.36
2017-02-04T12:45:14.048Z,8.33
2017-02-04T12:46:14.050Z,8.45
2017-02-04T12:47:14.033Z,8.37
2017-02-04T12:48:14.028Z,8.47
2017-02-04T12:49:14.015Z,8.37
2017-02-04T12:50:14.007Z,8.55
2017-02-04T12:51:13.999Z,8.65
2017-02-04T12:52:13.600Z,8.76
2017-02-04T12:53:13.983Z,8.81
2017-02-04T12:54:13.973Z,8.89
2017-02-04T12:55:13.959Z,8.92
2017-02-04T12:56:13.950Z,8.87
2017-02-04T12:57:13.943Z,8.95
2017-02-04T12:58:13.936Z,8.96
2017-02-04T12:59:13.925Z,8.96
2017-02-04T13:00:13.916Z,8.89
2017-02-04T13:01:13.904Z,8.91
2017-02-04T13:02:13.510Z,8.99
2017-02-04T13:03:13.889Z,8.99
2017-02-04T13:04:13.881Z,9.04
2017-02-04T13:05:13.871Z,9.13
2017-02-04T13:06:13.861Z,9.2
2017-02-04T13:07:13.850Z,9.13
2017-02-04T13:08:13.844Z,9.17
2017-02-04T13:09:13.447Z,9.18
2017-02-04T13:10:13.825Z,9.15
2017-02-04T13:11:13.819Z,9.17
2017-02-04T13:12:13.429Z,9.11
2017-02-04T13:13:13.800Z,9.11
2017-02-04T13:14:13.402Z,9.1
2017-02-04T13:15:13.786Z,9.08
2017-02-04T13:16:13.771Z,9.23
2017-02-04T13:17:13.768Z,9.2
2017-02-04T13:18:13.760Z,9.18
2017-02-04T13:19:13.748Z,9.15
2017-02-04T13:20:13.739Z,9.17
2017-02-04T13:21:13.731Z,9.1